sensor_id;sensor_type;location;lat;lon;timestamp;P1;durP1;ratioP1;P2;durP2;ratioP2
76995;SDS011;65929;49.062;10.338;2024-01-30T00:00:35;10.63;;;6.03;;
76995;SDS011;65929;49.062;10.338;2024-01-30T00:01:36;10.50;;;5.90;;
76995;SDS011;65929;49.062;10.338;2024-01-30T00:02:37;10.73;;;6.03;;
76995;SDS011;65929;49.062;10.338;2024-01-30T00:03:37;11.40;;;6.20;;
76995;SDS011;65929;49.062;10.338;2024-01-30T00:04:38;11.65;;;5.72;;
76995;SDS011;65929;49.062;10.338;2024-01-30T00:05:41;10.77;;;6.82;;
76995;SDS011;65929;49.062;10.338;2024-01-30T00:06:42;11.15;;;6.00;;
76995;SDS011;65929;49.062;10.338;2024-01-30T00:07:43;10.30;;;6.22;;
76995;SDS011;65929;49.062;10.338;2024-01-30T00:08:43;10.32;;;5.85;;
76995;SDS011;65929;49.062;10.338;2024-01-30T00:09:46;8.63;;;4.97;;
76995;SDS011;65929;49.062;10.338;2024-01-30T00:10:48;12.02;;;6.28;;
76995;SDS011;65929;49.062;10.338;2024-01-30T00:11:49;9.70;;;5.38;;
76995;SDS011;65929;49.062;10.338;2024-01-30T00:12:51;9.05;;;5.50;;
76995;SDS011;65929;49.062;10.338;2024-01-30T00:13:52;8.02;;;5.15;;
76995;SDS011;65929;49.062;10.338;2024-01-30T00:14:54;8.52;;;5.00;;
76995;SDS011;65929;49.062;10.338;2024-01-30T00:15:55;8.63;;;4.97;;
76995;SDS011;65929;49.062;10.338;2024-01-30T00:16:56;11.98;;;5.35;;
76995;SDS011;65929;49.062;10.338;2024-01-30T00:17:57;9.85;;;4.97;;
76995;SDS011;65929;49.062;10.338;2024-01-30T00:18:58;9.18;;;5.82;;
76995;SDS011;65929;49.062;10.338;2024-01-30T00:19:59;8.93;;;5.53;;
76995;SDS011;65929;49.062;10.338;2024-01-30T00:21:01;9.07;;;5.47;;
76995;SDS011;65929;49.062;10.338;2024-01-30T00:22:03;10.88;;;5.53;;
76995;SDS011;65929;49.062;10.338;2024-01-30T00:23:04;8.63;;;4.85;;
76995;SDS011;65929;49.062;10.338;2024-01-30T00:24:05;8.95;;;5.53;;
76995;SDS011;65929;49.062;10.338;2024-01-30T00:25:06;8.95;;;5.45;;
76995;SDS011;65929;49.062;10.338;2024-01-30T00:26:07;10.65;;;5.65;;
76995;SDS011;65929;49.062;10.338;2024-01-30T00:27:08;9.88;;;5.60;;
76995;SDS011;65929;49.062;10.338;2024-01-30T00:28:09;9.48;;;5.90;;
76995;SDS011;65929;49.062;10.338;2024-01-30T00:29:10;9.40;;;4.97;;
76995;SDS011;65929;49.062;10.338;2024-01-30T00:30:11;9.73;;;6.13;;
76995;SDS011;65929;49.062;10.338;2024-01-30T00:31:13;11.32;;;5.82;;
76995;SDS011;65929;49.062;10.338;2024-01-30T00:32:14;12.52;;;5.88;;
76995;SDS011;65929;49.062;10.338;2024-01-30T00:33:15;9.80;;;5.97;;
76995;SDS011;65929;49.062;10.338;2024-01-30T00:34:16;9.32;;;5.35;;
76995;SDS011;65929;49.062;10.338;2024-01-30T00:35:17;9.90;;;5.63;;
76995;SDS011;65929;49.062;10.338;2024-01-30T00:36:19;10.43;;;5.78;;
76995;SDS011;65929;49.062;10.338;2024-01-30T00:37:20;11.60;;;6.07;;
76995;SDS011;65929;49.062;10.338;2024-01-30T00:38:21;8.02;;;5.32;;
76995;SDS011;65929;49.062;10.338;2024-01-30T00:39:22;9.90;;;5.60;;
76995;SDS011;65929;49.062;10.338;2024-01-30T00:40:23;9.70;;;5.80;;
76995;SDS011;65929;49.062;10.338;2024-01-30T00:41:24;9.68;;;5.65;;
76995;SDS011;65929;49.062;10.338;2024-01-30T00:42:25;10.38;;;5.40;;
76995;SDS011;65929;49.062;10.338;2024-01-30T00:43:26;10.32;;;5.63;;
76995;SDS011;65929;49.062;10.338;2024-01-30T00:44:27;10.45;;;5.63;;
76995;SDS011;65929;49.062;10.338;2024-01-30T00:45:28;10.30;;;6.10;;
76995;SDS011;65929;49.062;10.338;2024-01-30T00:46:29;9.77;;;5.75;;
76995;SDS011;65929;49.062;10.338;2024-01-30T00:47:30;10.95;;;5.95;;
76995;SDS011;65929;49.062;10.338;2024-01-30T00:48:33;8.45;;;5.53;;
76995;SDS011;65929;49.062;10.338;2024-01-30T00:49:33;11.68;;;6.05;;
76995;SDS011;65929;49.062;10.338;2024-01-30T00:50:34;8.43;;;5.05;;
76995;SDS011;65929;49.062;10.338;2024-01-30T00:51:37;11.45;;;5.50;;
76995;SDS011;65929;49.062;10.338;2024-01-30T00:52:38;11.10;;;5.55;;
76995;SDS011;65929;49.062;10.338;2024-01-30T00:53:39;10.30;;;5.53;;
76995;SDS011;65929;49.062;10.338;2024-01-30T00:54:41;8.90;;;4.65;;
76995;SDS011;65929;49.062;10.338;2024-01-30T00:55:43;11.68;;;6.03;;
76995;SDS011;65929;49.062;10.338;2024-01-30T00:56:44;9.48;;;5.63;;
76995;SDS011;65929;49.062;10.338;2024-01-30T00:57:45;9.85;;;5.72;;
76995;SDS011;65929;49.062;10.338;2024-01-30T00:58:46;11.10;;;5.30;;
76995;SDS011;65929;49.062;10.338;2024-01-30T00:59:47;9.82;;;5.70;;
76995;SDS011;65929;49.062;10.338;2024-01-30T01:00:48;10.40;;;5.35;;
76995;SDS011;65929;49.062;10.338;2024-01-30T01:01:48;9.23;;;5.75;;
76995;SDS011;65929;49.062;10.338;2024-01-30T01:02:49;9.85;;;5.40;;
76995;SDS011;65929;49.062;10.338;2024-01-30T01:03:50;11.90;;;4.97;;
76995;SDS011;65929;49.062;10.338;2024-01-30T01:04:51;11.88;;;5.45;;
76995;SDS011;65929;49.062;10.338;2024-01-30T01:05:52;11.90;;;5.13;;
76995;SDS011;65929;49.062;10.338;2024-01-30T01:06:54;10.13;;;5.18;;
76995;SDS011;65929;49.062;10.338;2024-01-30T01:07:55;9.40;;;5.13;;
76995;SDS011;65929;49.062;10.338;2024-01-30T01:08:56;10.82;;;5.53;;
76995;SDS011;65929;49.062;10.338;2024-01-30T01:09:57;10.63;;;5.75;;
76995;SDS011;65929;49.062;10.338;2024-01-30T01:10:58;9.88;;;5.18;;
76995;SDS011;65929;49.062;10.338;2024-01-30T01:11:59;9.27;;;5.57;;
76995;SDS011;65929;49.062;10.338;2024-01-30T01:13:00;8.77;;;5.43;;
76995;SDS011;65929;49.062;10.338;2024-01-30T01:14:01;11.68;;;6.18;;
76995;SDS011;65929;49.062;10.338;2024-01-30T01:15:01;11.43;;;6.20;;
76995;SDS011;65929;49.062;10.338;2024-01-30T01:16:03;13.45;;;5.75;;
76995;SDS011;65929;49.062;10.338;2024-01-30T01:17:04;11.05;;;5.40;;
76995;SDS011;65929;49.062;10.338;2024-01-30T01:18:05;12.85;;;5.80;;
76995;SDS011;65929;49.062;10.338;2024-01-30T01:19:06;10.73;;;6.05;;
76995;SDS011;65929;49.062;10.338;2024-01-30T01:20:07;10.13;;;5.95;;
76995;SDS011;65929;49.062;10.338;2024-01-30T01:21:08;13.40;;;5.65;;
76995;SDS011;65929;49.062;10.338;2024-01-30T01:22:11;10.27;;;5.88;;
76995;SDS011;65929;49.062;10.338;2024-01-30T01:23:12;13.15;;;6.10;;
76995;SDS011;65929;49.062;10.338;2024-01-30T01:24:12;11.68;;;6.38;;
76995;SDS011;65929;49.062;10.338;2024-01-30T01:25:14;12.93;;;6.60;;
76995;SDS011;65929;49.062;10.338;2024-01-30T01:26:15;12.10;;;6.43;;
76995;SDS011;65929;49.062;10.338;2024-01-30T01:27:16;13.52;;;6.47;;
76995;SDS011;65929;49.062;10.338;2024-01-30T01:28:17;14.82;;;7.22;;
76995;SDS011;65929;49.062;10.338;2024-01-30T01:29:18;11.02;;;6.60;;
76995;SDS011;65929;49.062;10.338;2024-01-30T01:30:21;12.07;;;6.47;;
76995;SDS011;65929;49.062;10.338;2024-01-30T01:31:22;10.50;;;6.32;;
76995;SDS011;65929;49.062;10.338;2024-01-30T01:32:24;12.55;;;7.15;;
76995;SDS011;65929;49.062;10.338;2024-01-30T01:33:26;9.82;;;6.55;;
76995;SDS011;65929;49.062;10.338;2024-01-30T01:34:27;15.30;;;6.53;;
76995;SDS011;65929;49.062;10.338;2024-01-30T01:35:28;14.60;;;7.45;;
76995;SDS011;65929;49.062;10.338;2024-01-30T01:36:28;13.52;;;6.75;;
76995;SDS011;65929;49.062;10.338;2024-01-30T01:37:31;13.98;;;6.90;;
76995;SDS011;65929;49.062;10.338;2024-01-30T01:38:32;12.30;;;6.53;;
76995;SDS011;65929;49.062;10.338;2024-01-30T01:39:32;12.40;;;6.97;;
76995;SDS011;65929;49.062;10.338;2024-01-30T01:40:33;12.68;;;6.82;;
76995;SDS011;65929;49.062;10.338;2024-01-30T01:41:34;12.40;;;7.35;;
76995;SDS011;65929;49.062;10.338;2024-01-30T01:42:35;12.20;;;6.60;;
76995;SDS011;65929;49.062;10.338;2024-01-30T01:43:36;8.52;;;5.50;;
76995;SDS011;65929;49.062;10.338;2024-01-30T01:44:39;10.48;;;6.47;;
76995;SDS011;65929;49.062;10.338;2024-01-30T01:45:40;13.18;;;6.95;;
76995;SDS011;65929;49.062;10.338;2024-01-30T01:46:41;12.70;;;6.38;;
76995;SDS011;65929;49.062;10.338;2024-01-30T01:47:51;13.40;;;7.20;;
76995;SDS011;65929;49.062;10.338;2024-01-30T01:48:52;11.52;;;6.53;;
76995;SDS011;65929;49.062;10.338;2024-01-30T01:49:54;13.40;;;6.97;;
76995;SDS011;65929;49.062;10.338;2024-01-30T01:50:55;12.25;;;6.57;;
76995;SDS011;65929;49.062;10.338;2024-01-30T01:51:56;12.05;;;7.07;;
76995;SDS011;65929;49.062;10.338;2024-01-30T01:53:00;12.85;;;7.35;;
76995;SDS011;65929;49.062;10.338;2024-01-30T01:54:03;11.68;;;7.00;;
76995;SDS011;65929;49.062;10.338;2024-01-30T01:55:08;12.10;;;6.47;;
76995;SDS011;65929;49.062;10.338;2024-01-30T01:56:09;12.35;;;6.60;;
76995;SDS011;65929;49.062;10.338;2024-01-30T01:57:10;11.85;;;7.00;;
76995;SDS011;65929;49.062;10.338;2024-01-30T01:58:11;13.35;;;6.90;;
76995;SDS011;65929;49.062;10.338;2024-01-30T01:59:13;14.82;;;6.80;;
76995;SDS011;65929;49.062;10.338;2024-01-30T02:00:14;10.77;;;6.85;;
76995;SDS011;65929;49.062;10.338;2024-01-30T02:01:16;12.98;;;6.82;;
76995;SDS011;65929;49.062;10.338;2024-01-30T02:02:19;13.07;;;6.97;;
76995;SDS011;65929;49.062;10.338;2024-01-30T02:03:20;11.32;;;6.65;;
76995;SDS011;65929;49.062;10.338;2024-01-30T02:04:21;11.93;;;6.65;;
76995;SDS011;65929;49.062;10.338;2024-01-30T02:05:22;10.30;;;6.32;;
76995;SDS011;65929;49.062;10.338;2024-01-30T02:06:25;14.52;;;6.97;;
76995;SDS011;65929;49.062;10.338;2024-01-30T02:07:26;14.25;;;6.53;;
76995;SDS011;65929;49.062;10.338;2024-01-30T02:08:29;11.82;;;6.47;;
76995;SDS011;65929;49.062;10.338;2024-01-30T02:09:30;10.95;;;6.22;;
76995;SDS011;65929;49.062;10.338;2024-01-30T02:10:31;10.82;;;7.32;;
76995;SDS011;65929;49.062;10.338;2024-01-30T02:11:32;9.25;;;5.93;;
76995;SDS011;65929;49.062;10.338;2024-01-30T02:12:34;10.75;;;6.07;;
76995;SDS011;65929;49.062;10.338;2024-01-30T02:13:35;11.00;;;6.53;;
76995;SDS011;65929;49.062;10.338;2024-01-30T02:14:43;11.75;;;6.35;;
76995;SDS011;65929;49.062;10.338;2024-01-30T02:15:48;9.90;;;5.55;;
76995;SDS011;65929;49.062;10.338;2024-01-30T02:16:49;13.10;;;6.65;;
76995;SDS011;65929;49.062;10.338;2024-01-30T02:17:50;11.55;;;5.97;;
76995;SDS011;65929;49.062;10.338;2024-01-30T02:18:51;11.90;;;6.80;;
76995;SDS011;65929;49.062;10.338;2024-01-30T02:19:52;10.75;;;6.22;;
76995;SDS011;65929;49.062;10.338;2024-01-30T02:20:54;10.50;;;6.82;;
76995;SDS011;65929;49.062;10.338;2024-01-30T02:21:59;12.35;;;6.68;;
76995;SDS011;65929;49.062;10.338;2024-01-30T02:23:00;13.70;;;6.60;;
76995;SDS011;65929;49.062;10.338;2024-01-30T02:24:02;13.63;;;6.20;;
76995;SDS011;65929;49.062;10.338;2024-01-30T02:25:04;11.48;;;6.15;;
76995;SDS011;65929;49.062;10.338;2024-01-30T02:26:05;10.73;;;6.22;;
76995;SDS011;65929;49.062;10.338;2024-01-30T02:27:06;14.93;;;6.47;;
76995;SDS011;65929;49.062;10.338;2024-01-30T02:28:07;10.50;;;6.05;;
76995;SDS011;65929;49.062;10.338;2024-01-30T02:29:07;9.32;;;5.40;;
76995;SDS011;65929;49.062;10.338;2024-01-30T02:30:09;9.27;;;5.75;;
76995;SDS011;65929;49.062;10.338;2024-01-30T02:31:11;10.50;;;5.85;;
76995;SDS011;65929;49.062;10.338;2024-01-30T02:32:12;10.45;;;5.43;;
76995;SDS011;65929;49.062;10.338;2024-01-30T02:33:13;10.23;;;5.93;;
76995;SDS011;65929;49.062;10.338;2024-01-30T02:34:14;9.98;;;6.00;;
76995;SDS011;65929;49.062;10.338;2024-01-30T02:35:15;9.18;;;5.75;;
76995;SDS011;65929;49.062;10.338;2024-01-30T02:36:15;8.32;;;5.53;;
76995;SDS011;65929;49.062;10.338;2024-01-30T02:37:18;9.45;;;5.97;;
76995;SDS011;65929;49.062;10.338;2024-01-30T02:38:19;10.93;;;5.65;;
76995;SDS011;65929;49.062;10.338;2024-01-30T02:39:20;12.68;;;6.65;;
76995;SDS011;65929;49.062;10.338;2024-01-30T02:40:21;11.30;;;6.05;;
76995;SDS011;65929;49.062;10.338;2024-01-30T02:41:22;12.43;;;6.50;;
76995;SDS011;65929;49.062;10.338;2024-01-30T02:42:22;12.95;;;6.47;;
76995;SDS011;65929;49.062;10.338;2024-01-30T02:43:23;11.52;;;6.15;;
76995;SDS011;65929;49.062;10.338;2024-01-30T02:44:24;8.95;;;5.97;;
76995;SDS011;65929;49.062;10.338;2024-01-30T02:45:25;11.23;;;6.40;;
76995;SDS011;65929;49.062;10.338;2024-01-30T02:46:26;13.10;;;6.13;;
76995;SDS011;65929;49.062;10.338;2024-01-30T02:47:27;9.55;;;5.75;;
76995;SDS011;65929;49.062;10.338;2024-01-30T02:48:28;11.10;;;5.82;;
76995;SDS011;65929;49.062;10.338;2024-01-30T02:49:29;13.07;;;6.38;;
76995;SDS011;65929;49.062;10.338;2024-01-30T02:50:30;11.73;;;6.50;;
76995;SDS011;65929;49.062;10.338;2024-01-30T02:51:31;11.85;;;6.82;;
76995;SDS011;65929;49.062;10.338;2024-01-30T02:52:33;16.98;;;7.07;;
76995;SDS011;65929;49.062;10.338;2024-01-30T02:53:34;12.45;;;6.35;;
76995;SDS011;65929;49.062;10.338;2024-01-30T02:54:36;13.40;;;6.55;;
76995;SDS011;65929;49.062;10.338;2024-01-30T02:55:36;11.32;;;6.43;;
76995;SDS011;65929;49.062;10.338;2024-01-30T02:56:37;12.50;;;6.60;;
76995;SDS011;65929;49.062;10.338;2024-01-30T02:57:38;11.50;;;6.88;;
76995;SDS011;65929;49.062;10.338;2024-01-30T02:58:39;12.65;;;6.70;;
76995;SDS011;65929;49.062;10.338;2024-01-30T02:59:40;12.48;;;6.45;;
76995;SDS011;65929;49.062;10.338;2024-01-30T03:00:42;11.60;;;6.95;;
76995;SDS011;65929;49.062;10.338;2024-01-30T03:01:43;13.43;;;7.03;;
76995;SDS011;65929;49.062;10.338;2024-01-30T03:02:44;11.55;;;6.93;;
76995;SDS011;65929;49.062;10.338;2024-01-30T03:03:45;10.93;;;6.55;;
76995;SDS011;65929;49.062;10.338;2024-01-30T03:04:46;9.05;;;5.93;;
76995;SDS011;65929;49.062;10.338;2024-01-30T03:05:47;11.27;;;5.97;;
76995;SDS011;65929;49.062;10.338;2024-01-30T03:06:48;12.95;;;6.22;;
76995;SDS011;65929;49.062;10.338;2024-01-30T03:07:50;8.73;;;5.72;;
76995;SDS011;65929;49.062;10.338;2024-01-30T03:08:51;9.95;;;5.97;;
76995;SDS011;65929;49.062;10.338;2024-01-30T03:09:52;10.05;;;6.03;;
76995;SDS011;65929;49.062;10.338;2024-01-30T03:10:55;10.68;;;5.93;;
76995;SDS011;65929;49.062;10.338;2024-01-30T03:11:56;10.23;;;5.80;;
76995;SDS011;65929;49.062;10.338;2024-01-30T03:12:57;12.07;;;5.53;;
76995;SDS011;65929;49.062;10.338;2024-01-30T03:13:58;11.05;;;5.88;;
76995;SDS011;65929;49.062;10.338;2024-01-30T03:14:59;12.95;;;5.63;;
76995;SDS011;65929;49.062;10.338;2024-01-30T03:16:00;10.45;;;5.22;;
76995;SDS011;65929;49.062;10.338;2024-01-30T03:17:01;9.23;;;5.78;;
76995;SDS011;65929;49.062;10.338;2024-01-30T03:18:03;9.55;;;5.15;;
76995;SDS011;65929;49.062;10.338;2024-01-30T03:19:05;11.73;;;5.57;;
76995;SDS011;65929;49.062;10.338;2024-01-30T03:20:07;10.50;;;5.30;;
76995;SDS011;65929;49.062;10.338;2024-01-30T03:21:09;9.73;;;6.15;;
76995;SDS011;65929;49.062;10.338;2024-01-30T03:22:10;9.82;;;5.32;;
76995;SDS011;65929;49.062;10.338;2024-01-30T03:23:12;9.93;;;5.65;;
76995;SDS011;65929;49.062;10.338;2024-01-30T03:24:13;8.15;;;5.13;;
76995;SDS011;65929;49.062;10.338;2024-01-30T03:25:14;9.10;;;5.22;;
76995;SDS011;65929;49.062;10.338;2024-01-30T03:26:15;8.50;;;5.00;;
76995;SDS011;65929;49.062;10.338;2024-01-30T03:27:16;8.77;;;5.22;;
76995;SDS011;65929;49.062;10.338;2024-01-30T03:28:17;9.38;;;5.93;;
76995;SDS011;65929;49.062;10.338;2024-01-30T03:29:18;10.00;;;5.68;;
76995;SDS011;65929;49.062;10.338;2024-01-30T03:30:19;9.88;;;6.35;;
76995;SDS011;65929;49.062;10.338;2024-01-30T03:31:20;11.13;;;6.82;;
76995;SDS011;65929;49.062;10.338;2024-01-30T03:32:21;11.35;;;6.80;;
76995;SDS011;65929;49.062;10.338;2024-01-30T03:33:22;11.02;;;6.28;;
76995;SDS011;65929;49.062;10.338;2024-01-30T03:34:23;10.02;;;6.00;;
76995;SDS011;65929;49.062;10.338;2024-01-30T03:35:24;10.43;;;5.82;;
76995;SDS011;65929;49.062;10.338;2024-01-30T03:36:25;10.10;;;5.95;;
76995;SDS011;65929;49.062;10.338;2024-01-30T03:37:25;10.55;;;5.78;;
76995;SDS011;65929;49.062;10.338;2024-01-30T03:38:28;9.30;;;5.65;;
76995;SDS011;65929;49.062;10.338;2024-01-30T03:39:30;10.80;;;5.93;;
76995;SDS011;65929;49.062;10.338;2024-01-30T03:40:31;13.60;;;6.63;;
76995;SDS011;65929;49.062;10.338;2024-01-30T03:41:32;11.00;;;5.65;;
76995;SDS011;65929;49.062;10.338;2024-01-30T03:42:33;13.25;;;6.28;;
76995;SDS011;65929;49.062;10.338;2024-01-30T03:43:33;12.15;;;5.93;;
76995;SDS011;65929;49.062;10.338;2024-01-30T03:44:34;15.77;;;6.35;;
76995;SDS011;65929;49.062;10.338;2024-01-30T03:45:35;11.38;;;6.40;;
76995;SDS011;65929;49.062;10.338;2024-01-30T03:46:36;13.57;;;6.80;;
76995;SDS011;65929;49.062;10.338;2024-01-30T03:47:37;10.18;;;6.38;;
76995;SDS011;65929;49.062;10.338;2024-01-30T03:48:38;12.63;;;6.32;;
76995;SDS011;65929;49.062;10.338;2024-01-30T03:49:39;12.40;;;6.88;;
76995;SDS011;65929;49.062;10.338;2024-01-30T03:50:40;13.23;;;6.10;;
76995;SDS011;65929;49.062;10.338;2024-01-30T03:51:41;13.23;;;6.68;;
76995;SDS011;65929;49.062;10.338;2024-01-30T03:52:42;12.93;;;6.57;;
76995;SDS011;65929;49.062;10.338;2024-01-30T03:53:44;12.88;;;6.68;;
76995;SDS011;65929;49.062;10.338;2024-01-30T03:54:48;11.50;;;6.00;;
76995;SDS011;65929;49.062;10.338;2024-01-30T03:55:49;12.52;;;6.13;;
76995;SDS011;65929;49.062;10.338;2024-01-30T03:56:50;10.20;;;6.47;;
76995;SDS011;65929;49.062;10.338;2024-01-30T03:57:51;12.10;;;6.43;;
76995;SDS011;65929;49.062;10.338;2024-01-30T03:58:52;13.80;;;6.57;;
76995;SDS011;65929;49.062;10.338;2024-01-30T03:59:53;9.95;;;6.35;;
76995;SDS011;65929;49.062;10.338;2024-01-30T04:00:54;11.98;;;6.35;;
76995;SDS011;65929;49.062;10.338;2024-01-30T04:01:55;11.50;;;5.80;;
76995;SDS011;65929;49.062;10.338;2024-01-30T04:02:56;9.40;;;5.75;;
76995;SDS011;65929;49.062;10.338;2024-01-30T04:03:57;9.13;;;5.85;;
76995;SDS011;65929;49.062;10.338;2024-01-30T04:04:57;11.55;;;6.78;;
76995;SDS011;65929;49.062;10.338;2024-01-30T04:05:58;12.15;;;6.25;;
76995;SDS011;65929;49.062;10.338;2024-01-30T04:06:59;14.82;;;7.15;;
76995;SDS011;65929;49.062;10.338;2024-01-30T04:08:00;12.25;;;7.50;;
76995;SDS011;65929;49.062;10.338;2024-01-30T04:09:03;14.85;;;6.45;;
76995;SDS011;65929;49.062;10.338;2024-01-30T04:10:04;10.68;;;6.60;;
76995;SDS011;65929;49.062;10.338;2024-01-30T04:11:06;11.68;;;6.57;;
76995;SDS011;65929;49.062;10.338;2024-01-30T04:12:07;11.80;;;6.55;;
76995;SDS011;65929;49.062;10.338;2024-01-30T04:13:08;12.93;;;6.15;;
76995;SDS011;65929;49.062;10.338;2024-01-30T04:14:09;10.98;;;6.38;;
76995;SDS011;65929;49.062;10.338;2024-01-30T04:15:11;15.40;;;6.93;;
76995;SDS011;65929;49.062;10.338;2024-01-30T04:16:18;10.15;;;6.68;;
76995;SDS011;65929;49.062;10.338;2024-01-30T04:17:20;11.93;;;6.82;;
76995;SDS011;65929;49.062;10.338;2024-01-30T04:18:21;12.95;;;7.18;;
76995;SDS011;65929;49.062;10.338;2024-01-30T04:19:22;15.45;;;7.65;;
76995;SDS011;65929;49.062;10.338;2024-01-30T04:20:23;13.85;;;7.40;;
76995;SDS011;65929;49.062;10.338;2024-01-30T04:21:24;11.75;;;6.78;;
76995;SDS011;65929;49.062;10.338;2024-01-30T04:22:25;13.10;;;6.20;;
76995;SDS011;65929;49.062;10.338;2024-01-30T04:23:25;10.88;;;6.00;;
76995;SDS011;65929;49.062;10.338;2024-01-30T04:24:28;8.95;;;6.05;;
76995;SDS011;65929;49.062;10.338;2024-01-30T04:25:29;12.90;;;6.65;;
76995;SDS011;65929;49.062;10.338;2024-01-30T04:26:29;10.73;;;6.25;;
76995;SDS011;65929;49.062;10.338;2024-01-30T04:27:30;11.00;;;6.60;;
76995;SDS011;65929;49.062;10.338;2024-01-30T04:28:32;13.98;;;6.75;;
76995;SDS011;65929;49.062;10.338;2024-01-30T04:29:32;12.65;;;6.15;;
76995;SDS011;65929;49.062;10.338;2024-01-30T04:30:34;12.07;;;5.80;;
76995;SDS011;65929;49.062;10.338;2024-01-30T04:31:35;10.98;;;6.13;;
76995;SDS011;65929;49.062;10.338;2024-01-30T04:32:37;11.00;;;6.10;;
76995;SDS011;65929;49.062;10.338;2024-01-30T04:33:38;11.20;;;6.05;;
76995;SDS011;65929;49.062;10.338;2024-01-30T04:34:39;8.63;;;5.40;;
76995;SDS011;65929;49.062;10.338;2024-01-30T04:35:40;9.48;;;5.80;;
76995;SDS011;65929;49.062;10.338;2024-01-30T04:36:43;10.25;;;6.07;;
76995;SDS011;65929;49.062;10.338;2024-01-30T04:37:45;11.52;;;5.68;;
76995;SDS011;65929;49.062;10.338;2024-01-30T04:38:46;10.77;;;5.78;;
76995;SDS011;65929;49.062;10.338;2024-01-30T04:39:49;11.52;;;5.55;;
76995;SDS011;65929;49.062;10.338;2024-01-30T04:40:50;10.90;;;5.80;;
76995;SDS011;65929;49.062;10.338;2024-01-30T04:41:51;11.02;;;6.15;;
76995;SDS011;65929;49.062;10.338;2024-01-30T04:42:52;9.65;;;5.90;;
76995;SDS011;65929;49.062;10.338;2024-01-30T04:43:53;11.50;;;6.40;;
76995;SDS011;65929;49.062;10.338;2024-01-30T04:44:54;14.38;;;6.50;;
76995;SDS011;65929;49.062;10.338;2024-01-30T04:45:55;11.68;;;6.68;;
76995;SDS011;65929;49.062;10.338;2024-01-30T04:46:55;10.32;;;6.18;;
76995;SDS011;65929;49.062;10.338;2024-01-30T04:47:59;13.98;;;6.85;;
76995;SDS011;65929;49.062;10.338;2024-01-30T04:49:00;13.57;;;6.78;;
76995;SDS011;65929;49.062;10.338;2024-01-30T04:50:01;10.65;;;6.32;;
76995;SDS011;65929;49.062;10.338;2024-01-30T04:51:04;11.77;;;6.45;;
76995;SDS011;65929;49.062;10.338;2024-01-30T04:52:05;11.35;;;6.18;;
76995;SDS011;65929;49.062;10.338;2024-01-30T04:53:06;11.60;;;6.28;;
76995;SDS011;65929;49.062;10.338;2024-01-30T04:54:08;12.43;;;6.05;;
76995;SDS011;65929;49.062;10.338;2024-01-30T04:55:10;12.35;;;6.05;;
76995;SDS011;65929;49.062;10.338;2024-01-30T04:56:11;11.95;;;6.18;;
76995;SDS011;65929;49.062;10.338;2024-01-30T04:57:12;11.68;;;6.53;;
76995;SDS011;65929;49.062;10.338;2024-01-30T04:58:13;11.45;;;6.25;;
76995;SDS011;65929;49.062;10.338;2024-01-30T04:59:14;11.55;;;6.80;;
76995;SDS011;65929;49.062;10.338;2024-01-30T05:00:15;11.43;;;6.43;;
76995;SDS011;65929;49.062;10.338;2024-01-30T05:01:16;10.75;;;6.18;;
76995;SDS011;65929;49.062;10.338;2024-01-30T05:02:17;9.90;;;6.03;;
76995;SDS011;65929;49.062;10.338;2024-01-30T05:03:18;15.25;;;6.50;;
76995;SDS011;65929;49.062;10.338;2024-01-30T05:04:19;14.18;;;6.78;;
76995;SDS011;65929;49.062;10.338;2024-01-30T05:05:22;12.68;;;6.63;;
76995;SDS011;65929;49.062;10.338;2024-01-30T05:06:25;12.82;;;6.50;;
76995;SDS011;65929;49.062;10.338;2024-01-30T05:07:26;10.93;;;5.93;;
76995;SDS011;65929;49.062;10.338;2024-01-30T05:08:28;12.60;;;6.80;;
76995;SDS011;65929;49.062;10.338;2024-01-30T05:09:29;12.70;;;6.43;;
76995;SDS011;65929;49.062;10.338;2024-01-30T05:10:31;13.40;;;6.38;;
76995;SDS011;65929;49.062;10.338;2024-01-30T05:11:36;9.65;;;5.60;;
76995;SDS011;65929;49.062;10.338;2024-01-30T05:13:39;12.32;;;5.50;;
76995;SDS011;65929;49.062;10.338;2024-01-30T05:14:39;11.90;;;6.13;;
76995;SDS011;65929;49.062;10.338;2024-01-30T05:15:40;14.43;;;6.45;;
76995;SDS011;65929;49.062;10.338;2024-01-30T05:16:41;8.70;;;6.10;;
76995;SDS011;65929;49.062;10.338;2024-01-30T05:17:46;12.23;;;6.05;;
76995;SDS011;65929;49.062;10.338;2024-01-30T05:18:47;14.60;;;7.05;;
76995;SDS011;65929;49.062;10.338;2024-01-30T05:19:48;11.30;;;6.32;;
76995;SDS011;65929;49.062;10.338;2024-01-30T05:20:49;13.00;;;7.20;;
76995;SDS011;65929;49.062;10.338;2024-01-30T05:21:50;13.73;;;7.13;;
76995;SDS011;65929;49.062;10.338;2024-01-30T05:22:51;10.68;;;6.30;;
76995;SDS011;65929;49.062;10.338;2024-01-30T05:23:52;14.38;;;6.65;;
76995;SDS011;65929;49.062;10.338;2024-01-30T05:24:53;11.27;;;6.65;;
76995;SDS011;65929;49.062;10.338;2024-01-30T05:25:55;11.63;;;6.53;;
76995;SDS011;65929;49.062;10.338;2024-01-30T05:26:57;17.98;;;7.00;;
76995;SDS011;65929;49.062;10.338;2024-01-30T05:27:57;12.48;;;6.63;;
76995;SDS011;65929;49.062;10.338;2024-01-30T05:28:58;11.20;;;6.63;;
76995;SDS011;65929;49.062;10.338;2024-01-30T05:29:59;14.27;;;7.00;;
76995;SDS011;65929;49.062;10.338;2024-01-30T05:31:00;12.15;;;6.88;;
76995;SDS011;65929;49.062;10.338;2024-01-30T05:32:01;12.27;;;6.70;;
76995;SDS011;65929;49.062;10.338;2024-01-30T05:33:02;15.32;;;7.43;;
76995;SDS011;65929;49.062;10.338;2024-01-30T05:34:04;13.18;;;6.65;;
76995;SDS011;65929;49.062;10.338;2024-01-30T05:35:06;11.77;;;6.07;;
76995;SDS011;65929;49.062;10.338;2024-01-30T05:36:08;11.90;;;6.75;;
76995;SDS011;65929;49.062;10.338;2024-01-30T05:37:11;14.07;;;7.40;;
76995;SDS011;65929;49.062;10.338;2024-01-30T05:38:17;12.65;;;7.15;;
76995;SDS011;65929;49.062;10.338;2024-01-30T05:39:17;13.40;;;7.15;;
76995;SDS011;65929;49.062;10.338;2024-01-30T05:40:19;10.93;;;6.20;;
76995;SDS011;65929;49.062;10.338;2024-01-30T05:41:21;12.32;;;6.35;;
76995;SDS011;65929;49.062;10.338;2024-01-30T05:42:22;12.52;;;6.38;;
76995;SDS011;65929;49.062;10.338;2024-01-30T05:43:23;11.70;;;6.75;;
76995;SDS011;65929;49.062;10.338;2024-01-30T05:44:24;11.10;;;6.05;;
76995;SDS011;65929;49.062;10.338;2024-01-30T05:45:24;12.05;;;6.68;;
76995;SDS011;65929;49.062;10.338;2024-01-30T05:46:25;9.13;;;5.93;;
76995;SDS011;65929;49.062;10.338;2024-01-30T05:47:26;12.23;;;6.53;;
76995;SDS011;65929;49.062;10.338;2024-01-30T05:48:27;12.40;;;6.20;;
76995;SDS011;65929;49.062;10.338;2024-01-30T05:49:28;12.77;;;6.65;;
76995;SDS011;65929;49.062;10.338;2024-01-30T05:50:29;14.43;;;7.20;;
76995;SDS011;65929;49.062;10.338;2024-01-30T05:51:30;13.10;;;7.53;;
76995;SDS011;65929;49.062;10.338;2024-01-30T05:52:31;12.63;;;6.70;;
76995;SDS011;65929;49.062;10.338;2024-01-30T05:53:32;13.05;;;6.30;;
76995;SDS011;65929;49.062;10.338;2024-01-30T05:54:34;13.43;;;7.07;;
76995;SDS011;65929;49.062;10.338;2024-01-30T05:55:34;11.27;;;6.65;;
76995;SDS011;65929;49.062;10.338;2024-01-30T05:56:37;13.85;;;6.88;;
76995;SDS011;65929;49.062;10.338;2024-01-30T05:57:38;12.40;;;6.30;;
76995;SDS011;65929;49.062;10.338;2024-01-30T05:58:38;10.43;;;6.45;;
76995;SDS011;65929;49.062;10.338;2024-01-30T05:59:39;13.68;;;7.40;;
76995;SDS011;65929;49.062;10.338;2024-01-30T06:00:40;12.30;;;6.80;;